createdAt,value
2018-05-10T00:01:55.441Z,17.33
2018-05-10T00:04:22.886Z,17.45
2018-05-10T00:06:50.306Z,17.39
2018-05-10T00:09:17.763Z,17.46
2018-05-10T00:11:45.186Z,17.47
2018-05-10T00:14:12.597Z,17.44
2018-05-10T00:16:40.030Z,17.49
2018-05-10T00:19:07.441Z,17.54
2018-05-10T00:21:34.881Z,17.56
2018-05-10T00:24:03.237Z,17.48
2018-05-10T00:26:30.683Z,17.37
2018-05-10T00:28:58.093Z,17.44
2018-05-10T00:31:25.533Z,17.27
2018-05-10T00:33:52.958Z,17.12
2018-05-10T00:36:20.401Z,17.14
2018-05-10T00:38:47.818Z,17.16
2018-05-10T00:41:15.255Z,17.20
2018-05-10T00:43:42.679Z,17.16
2018-05-10T00:46:10.118Z,17.09
2018-05-10T00:48:37.533Z,17.03
2018-05-10T00:51:04.956Z,16.99
2018-05-10T00:53:32.378Z,16.97
2018-05-10T00:55:59.799Z,17.06
2018-05-10T00:58:27.241Z,17.01
2018-05-10T01:00:54.655Z,16.99
2018-05-10T01:03:22.090Z,16.94
2018-05-10T01:05:49.507Z,16.85
2018-05-10T01:08:16.949Z,16.93
2018-05-10T01:10:44.357Z,16.81
2018-05-10T01:13:11.847Z,16.97
2018-05-10T01:15:39.213Z,16.99
2018-05-10T01:18:06.655Z,16.98
2018-05-10T01:20:34.073Z,16.87
2018-05-10T01:23:01.521Z,16.95
2018-05-10T01:25:28.938Z,17.02
2018-05-10T01:27:57.346Z,17.00
2018-05-10T01:30:24.757Z,17.00
2018-05-10T01:32:52.194Z,17.01
2018-05-10T01:35:31.236Z,16.96
2018-05-10T01:37:58.669Z,17.00
2018-05-10T01:40:26.090Z,16.94
2018-05-10T01:42:53.538Z,16.85
2018-05-10T01:45:20.950Z,16.87
2018-05-10T01:47:48.367Z,16.74
2018-05-10T01:50:15.815Z,16.72
2018-05-10T01:52:45.142Z,16.65
2018-05-10T01:55:12.586Z,16.51
2018-05-10T01:57:39.997Z,16.40
2018-05-10T02:00:08.406Z,16.39
2018-05-10T02:02:36.760Z,16.37
2018-05-10T02:05:04.194Z,16.25
2018-05-10T02:07:31.616Z,16.26
2018-05-10T02:09:59.061Z,16.25
2018-05-10T02:12:26.478Z,16.21
2018-05-10T02:14:54.895Z,16.16
2018-05-10T02:17:22.301Z,16.09
2018-05-10T02:19:49.746Z,16.17
2018-05-10T02:22:17.158Z,16.06
2018-05-10T02:24:44.592Z,16.07
2018-05-10T02:27:12.010Z,16.01
2018-05-10T02:29:39.498Z,16.05
2018-05-10T02:32:06.880Z,16.06
2018-05-10T02:34:34.345Z,16.09
2018-05-10T02:37:01.761Z,16.09
2018-05-10T02:39:29.186Z,16.03
2018-05-10T02:41:56.637Z,16.02
2018-05-10T02:44:24.050Z,15.94
2018-05-10T02:46:51.482Z,16.02
2018-05-10T02:49:18.910Z,15.97
2018-05-10T02:51:46.347Z,16.01
2018-05-10T02:54:14.658Z,16.07
2018-05-10T02:56:43.002Z,16.11
2018-05-10T02:59:10.454Z,16.13
2018-05-10T03:01:39.861Z,16.16
2018-05-10T03:04:07.285Z,16.18
2018-05-10T03:06:34.725Z,16.17
2018-05-10T03:09:02.174Z,16.23
2018-05-10T03:11:29.618Z,16.22
2018-05-10T03:13:57.040Z,16.28
2018-05-10T03:16:25.418Z,16.23
2018-05-10T03:18:52.834Z,16.22
2018-05-10T03:21:20.277Z,16.28
2018-05-10T03:23:49.693Z,16.28
2018-05-10T03:26:17.141Z,16.28
2018-05-10T03:28:47.689Z,16.35
2018-05-10T03:31:15.158Z,16.31
2018-05-10T03:33:45.754Z,16.37
2018-05-10T03:36:13.170Z,16.40
2018-05-10T03:38:40.622Z,16.51
2018-05-10T03:41:08.036Z,16.50
2018-05-10T03:43:37.386Z,16.57
2018-05-10T03:46:05.717Z,16.58
2018-05-10T03:48:33.160Z,16.56
2018-05-10T03:51:01.473Z,16.45
2018-05-10T03:53:30.801Z,16.48
2018-05-10T03:55:58.215Z,16.48
2018-05-10T03:58:25.650Z,16.52
2018-05-10T04:00:53.066Z,16.59
2018-05-10T04:06:28.050Z,16.67
2018-05-10T04:09:07.174Z,16.79
2018-05-10T04:11:34.578Z,16.81
2018-05-10T04:14:02.025Z,16.87
2018-05-10T04:16:29.457Z,16.95
2018-05-10T04:18:56.905Z,16.94
2018-05-10T04:21:24.310Z,16.97
2018-05-10T04:23:51.745Z,17.12
2018-05-10T04:26:19.177Z,17.23
2018-05-10T04:28:46.593Z,17.26
2018-05-10T04:31:14.034Z,17.32
2018-05-10T04:33:41.446Z,17.49
2018-05-10T04:36:08.897Z,17.73
2018-05-10T04:38:36.314Z,17.95
2018-05-10T04:41:03.749Z,18.13
2018-05-10T04:43:31.187Z,18.28
2018-05-10T04:45:58.962Z,18.43
2018-05-10T04:48:26.381Z,18.56
2018-05-10T04:50:53.827Z,18.78
2018-05-10T04:53:22.241Z,18.88
2018-05-10T04:55:49.679Z,18.78
2018-05-10T04:58:17.091Z,18.80
2018-05-10T05:00:44.527Z,18.81
2018-05-10T05:03:11.952Z,19.08
2018-05-10T05:05:39.406Z,19.18
2018-05-10T05:08:06.815Z,19.16
2018-05-10T05:10:34.241Z,19.18
2018-05-10T05:13:02.633Z,19.32
2018-05-10T05:15:30.067Z,19.45
2018-05-10T05:17:57.506Z,19.28
2018-05-10T05:20:25.985Z,19.11
2018-05-10T05:22:53.345Z,19.01
2018-05-10T05:25:20.757Z,19.11
2018-05-10T05:27:48.194Z,19.24
2018-05-10T05:30:15.609Z,19.26
2018-05-10T05:32:43.106Z,19.40
2018-05-10T05:35:10.488Z,19.48
2018-05-10T05:37:37.930Z,19.58
2018-05-10T05:40:05.359Z,19.80
2018-05-10T05:42:32.810Z,20.08
2018-05-10T05:45:00.229Z,19.96
2018-05-10T05:47:27.674Z,20.22
2018-05-10T05:49:56.094Z,20.54
2018-05-10T05:52:23.541Z,20.61
2018-05-10T05:54:50.963Z,20.54
2018-05-10T05:57:18.490Z,20.56
2018-05-10T05:59:45.898Z,20.67
2018-05-10T06:02:13.310Z,20.75
2018-05-10T06:04:40.757Z,20.91
2018-05-10T06:07:08.177Z,21.15
2018-05-10T06:09:35.610Z,21.56
2018-05-10T06:12:03.023Z,21.58
2018-05-10T06:14:30.461Z,21.57
2018-05-10T06:16:58.837Z,21.72
2018-05-10T06:19:26.285Z,22.07
2018-05-10T06:21:53.701Z,22.13
2018-05-10T06:24:21.142Z,22.48
2018-05-10T06:26:48.562Z,22.24
2018-05-10T06:29:16.008Z,22.34
2018-05-10T06:31:43.428Z,22.29
2018-05-10T06:34:11.799Z,22.12
2018-05-10T06:36:39.206Z,22.25
2018-05-10T06:39:06.662Z,22.29
2018-05-10T06:41:34.094Z,22.37
2018-05-10T06:44:01.499Z,22.57
2018-05-10T06:46:28.938Z,23.11
2018-05-10T06:48:56.367Z,23.76
2018-05-10T06:51:23.807Z,23.79
2018-05-10T06:53:51.232Z,24.52
2018-05-10T06:56:19.622Z,24.98
2018-05-10T06:58:50.499Z,25.16
2018-05-10T07:01:17.942Z,25.73
2018-05-10T07:03:45.367Z,26.14
2018-05-10T07:06:12.811Z,25.54
2018-05-10T07:08:40.218Z,25.91
2018-05-10T07:11:08.657Z,26.11
2018-05-10T07:13:37.014Z,25.60
2018-05-10T07:16:05.346Z,25.05
2018-05-10T07:18:32.757Z,24.38
2018-05-10T07:21:00.207Z,24.38
2018-05-10T07:23:27.632Z,24.56
2018-05-10T07:25:55.107Z,24.69
2018-05-10T07:28:22.518Z,24.53
2018-05-10T07:30:49.934Z,24.17
2018-05-10T07:33:17.390Z,23.66
2018-05-10T07:35:44.812Z,23.81
2018-05-10T07:38:12.261Z,24.21
2018-05-10T07:40:39.696Z,24.04
2018-05-10T07:43:08.149Z,24.57
2018-05-10T07:45:35.561Z,24.28
2018-05-10T07:48:03.025Z,24.52
2018-05-10T07:50:31.410Z,24.81
2018-05-10T07:52:58.858Z,25.31
2018-05-10T07:55:26.283Z,26.11
2018-05-10T07:57:55.662Z,26.04
2018-05-10T08:00:24.026Z,26.04
2018-05-10T08:02:51.475Z,26.09
2018-05-10T08:05:18.893Z,26.23
2018-05-10T08:07:46.359Z,26.19
2018-05-10T08:10:14.798Z,25.51
2018-05-10T08:12:42.184Z,25.33
2018-05-10T08:15:10.625Z,25.17
2018-05-10T08:17:38.042Z,25.15
2018-05-10T08:20:05.488Z,24.96
2018-05-10T08:22:33.911Z,24.96
2018-05-10T08:25:02.290Z,25.41
2018-05-10T08:27:52.429Z,26.05
2018-05-10T08:30:20.947Z,26.68
2018-05-10T08:32:49.313Z,26.37
2018-05-10T08:35:16.755Z,26.71
2018-05-10T08:37:44.182Z,26.26
2018-05-10T08:40:11.617Z,25.54
2018-05-10T08:42:39.042Z,25.45
2018-05-10T08:45:06.508Z,25.68
2018-05-10T08:47:33.915Z,25.96
2018-05-10T08:50:01.358Z,26.02
2018-05-10T08:52:28.770Z,26.36
2018-05-10T08:54:56.212Z,26.46
2018-05-10T08:57:23.633Z,26.05
2018-05-10T08:59:51.093Z,26.48
2018-05-10T09:02:18.500Z,26.19
2018-05-10T09:04:45.918Z,25.60
2018-05-10T09:07:13.358Z,25.26
2018-05-10T09:09:40.774Z,25.26
2018-05-10T09:12:08.223Z,25.43
2018-05-10T09:14:35.637Z,26.00
2018-05-10T09:17:03.097Z,26.60
2018-05-10T09:19:30.517Z,27.21
2018-05-10T09:21:57.961Z,27.14
2018-05-10T09:24:25.382Z,27.62
2018-05-10T09:26:52.826Z,27.88
2018-05-10T09:29:20.242Z,27.50
2018-05-10T09:31:47.686Z,27.42
2018-05-10T09:34:15.105Z,27.43
2018-05-10T09:36:42.550Z,27.66
2018-05-10T09:39:10.057Z,27.58
2018-05-10T09:41:37.422Z,27.37
2018-05-10T09:44:04.855Z,26.96
2018-05-10T09:46:32.275Z,27.21
2018-05-10T09:48:59.718Z,27.52
2018-05-10T09:51:27.171Z,27.33
2018-05-10T09:53:54.602Z,26.84
2018-05-10T09:56:22.958Z,27.05
2018-05-10T09:58:52.464Z,27.09
2018-05-10T10:01:33.882Z,27.22
2018-05-10T10:04:01.446Z,27.56
2018-05-10T10:06:28.861Z,27.48
2018-05-10T10:08:57.249Z,27.23
2018-05-10T10:11:26.631Z,27.40
2018-05-10T10:13:54.078Z,27.37
2018-05-10T10:16:21.502Z,26.76
2018-05-10T10:18:48.961Z,27.39
2018-05-10T10:21:16.374Z,27.57
2018-05-10T10:23:43.822Z,27.41
2018-05-10T10:26:12.208Z,27.78
2018-05-10T10:28:39.649Z,27.50
2018-05-10T10:31:07.073Z,27.58
2018-05-10T10:33:34.532Z,27.82
2018-05-10T10:36:01.942Z,28.34
2018-05-10T10:38:29.395Z,28.03
2018-05-10T10:40:56.822Z,27.64
2018-05-10T10:43:24.230Z,27.44
2018-05-10T10:45:51.677Z,27.93
2018-05-10T10:48:19.106Z,27.88
2018-05-10T10:50:46.564Z,27.70
2018-05-10T10:53:14.883Z,27.88
2018-05-10T10:55:42.337Z,28.04
2018-05-10T10:58:10.762Z,28.32
2018-05-10T11:00:38.215Z,28.84
2018-05-10T11:03:06.598Z,28.63
2018-05-10T11:05:36.035Z,28.47
2018-05-10T11:08:03.458Z,28.86
2018-05-10T11:10:30.906Z,28.46
2018-05-10T11:12:58.322Z,27.71
2018-05-10T11:15:25.774Z,27.58
2018-05-10T11:17:53.198Z,27.62
2018-05-10T11:20:20.645Z,27.99
2018-05-10T11:22:48.070Z,28.57
2018-05-10T11:25:15.485Z,28.50
2018-05-10T11:27:45.691Z,28.81
2018-05-10T11:30:13.103Z,28.86
2018-05-10T11:32:41.526Z,28.18
2018-05-10T11:35:08.953Z,27.59
2018-05-10T11:37:36.394Z,27.58
2018-05-10T11:40:03.805Z,27.25
2018-05-10T11:42:31.249Z,27.06
2018-05-10T11:44:58.883Z,27.55
2018-05-10T11:47:26.337Z,28.00
2018-05-10T11:49:55.671Z,28.47
2018-05-10T11:52:23.555Z,28.41
2018-05-10T11:54:50.989Z,27.90
2018-05-10T11:57:18.449Z,27.82
2018-05-10T11:59:45.861Z,27.42
2018-05-10T12:02:13.310Z,26.32
2018-05-10T12:04:40.730Z,25.99
2018-05-10T12:07:09.114Z,25.76
2018-05-10T12:09:36.532Z,25.61
2018-05-10T12:12:03.981Z,25.37
2018-05-10T12:14:33.426Z,25.10
2018-05-10T12:17:00.856Z,24.30
2018-05-10T12:19:29.202Z,23.87
2018-05-10T12:21:56.627Z,23.07
2018-05-10T12:24:24.090Z,22.05
2018-05-10T12:26:51.506Z,21.02
2018-05-10T12:29:18.949Z,20.53
2018-05-10T12:31:46.372Z,21.14
2018-05-10T12:34:13.812Z,21.50
2018-05-10T12:36:41.246Z,21.23
2018-05-10T12:39:09.626Z,21.76
2018-05-10T12:41:37.089Z,22.00
2018-05-10T12:44:05.462Z,21.93
2018-05-10T12:46:32.965Z,21.84
2018-05-10T12:49:00.418Z,21.72
2018-05-10T12:51:27.833Z,21.63
2018-05-10T12:53:55.295Z,21.94
2018-05-10T12:56:22.800Z,22.10
2018-05-10T12:58:50.187Z,22.24
2018-05-10T13:01:17.609Z,22.36
2018-05-10T13:03:45.066Z,22.53
2018-05-10T13:06:12.490Z,22.23
2018-05-10T13:08:39.911Z,22.31
2018-05-10T13:11:09.334Z,22.12
2018-05-10T13:13:36.761Z,21.62
2018-05-10T13:16:04.237Z,21.86
2018-05-10T13:18:32.539Z,22.13
2018-05-10T13:20:59.982Z,22.58
2018-05-10T13:23:27.405Z,22.65
2018-05-10T13:25:54.854Z,22.02
2018-05-10T13:28:22.278Z,21.45
2018-05-10T13:30:49.736Z,21.08
2018-05-10T13:33:18.142Z,20.55
2018-05-10T13:35:45.584Z,19.92
2018-05-10T13:38:13.010Z,19.97
2018-05-10T13:40:40.463Z,19.93
2018-05-10T13:43:07.881Z,19.96
2018-05-10T13:45:35.334Z,19.94
2018-05-10T13:48:02.759Z,19.78
2018-05-10T13:50:30.211Z,19.86
2018-05-10T13:52:57.785Z,20.07
2018-05-10T13:55:25.099Z,19.89
2018-05-10T13:57:52.527Z,19.33
2018-05-10T14:00:19.957Z,18.82
2018-05-10T14:02:48.391Z,18.88
2018-05-10T14:05:15.806Z,18.91
2018-05-10T14:07:43.258Z,19.21
2018-05-10T14:10:10.694Z,19.60
2018-05-10T14:12:38.150Z,19.76
2018-05-10T14:15:05.591Z,19.79
2018-05-10T14:17:33.036Z,19.62
2018-05-10T14:20:00.461Z,19.97
2018-05-10T14:22:27.910Z,19.87
2018-05-10T14:24:55.349Z,20.03
2018-05-10T14:27:22.790Z,20.16
2018-05-10T14:29:50.211Z,20.81
2018-05-10T14:32:17.696Z,21.37
2018-05-10T14:34:45.090Z,21.75
2018-05-10T14:37:12.547Z,21.28
2018-05-10T14:39:40.919Z,21.47
2018-05-10T14:42:08.352Z,21.13
2018-05-10T14:44:35.810Z,20.03
2018-05-10T14:47:03.230Z,19.13
2018-05-10T14:49:30.679Z,19.44
2018-05-10T14:51:58.098Z,19.45
2018-05-10T14:54:26.509Z,19.17
2018-05-10T14:56:53.942Z,19.36
2018-05-10T14:59:21.398Z,19.43
2018-05-10T15:01:48.822Z,19.39
2018-05-10T15:04:16.277Z,19.36
2018-05-10T15:06:43.691Z,19.25
2018-05-10T15:09:11.146Z,19.06
2018-05-10T15:11:38.585Z,19.04
2018-05-10T15:14:06.030Z,19.31
2018-05-10T15:16:34.421Z,19.39
2018-05-10T15:19:01.869Z,19.45
2018-05-10T15:21:29.295Z,19.02
2018-05-10T15:23:56.752Z,18.93
2018-05-10T15:26:24.199Z,18.95
2018-05-10T15:28:51.622Z,18.91
2018-05-10T15:31:19.070Z,18.47
2018-05-10T15:33:47.430Z,18.05
2018-05-10T15:36:14.878Z,17.83
2018-05-10T15:38:42.347Z,18.00
2018-05-10T15:41:09.791Z,18.14
2018-05-10T15:43:37.222Z,17.98
2018-05-10T15:46:05.573Z,17.74
2018-05-10T15:48:32.990Z,17.26
2018-05-10T15:51:00.444Z,17.41
2018-05-10T15:53:27.871Z,16.85
2018-05-10T15:55:55.318Z,16.84
2018-05-10T15:58:22.743Z,16.81
2018-05-10T16:00:50.192Z,16.80
2018-05-10T16:03:17.613Z,16.67
2018-05-10T16:05:45.041Z,16.92
2018-05-10T16:08:13.491Z,16.96
2018-05-10T16:10:40.907Z,17.01
2018-05-10T16:13:09.317Z,17.10
2018-05-10T16:15:36.770Z,17.31
2018-05-10T16:18:04.821Z,17.46
2018-05-10T16:20:32.265Z,17.38
2018-05-10T16:22:59.714Z,17.37
2018-05-10T16:25:27.131Z,17.66
2018-05-10T16:27:54.573Z,17.40
2018-05-10T16:30:22.014Z,17.21
2018-05-10T16:32:50.415Z,17.04
2018-05-10T16:35:17.825Z,16.90
2018-05-10T16:37:47.261Z,17.12
2018-05-10T16:40:15.612Z,17.08
2018-05-10T16:42:43.070Z,17.39
2018-05-10T16:45:11.289Z,17.38
2018-05-10T16:47:38.726Z,17.45
2018-05-10T16:50:06.141Z,17.64
2018-05-10T16:52:33.590Z,17.81
2018-05-10T16:55:02.000Z,18.19
2018-05-10T16:57:29.463Z,18.41
2018-05-10T16:59:57.306Z,18.32
2018-05-10T17:02:25.098Z,17.79
2018-05-10T17:04:53.483Z,17.89
2018-05-10T17:07:20.911Z,17.83
2018-05-10T17:09:48.358Z,17.51
2018-05-10T17:12:15.777Z,17.29
2018-05-10T17:14:43.223Z,17.24
2018-05-10T17:17:10.661Z,17.22
2018-05-10T17:19:38.854Z,16.86
2018-05-10T17:22:06.286Z,17.11
2018-05-10T17:24:33.736Z,17.13
2018-05-10T17:27:01.156Z,17.05
2018-05-10T17:29:29.178Z,17.19
2018-05-10T17:31:56.606Z,17.04
2018-05-10T17:34:25.022Z,17.25
2018-05-10T17:36:52.450Z,17.13
2018-05-10T17:39:19.894Z,17.42
2018-05-10T17:41:47.316Z,17.06
2018-05-10T17:44:14.763Z,17.21
2018-05-10T17:46:42.226Z,17.10
2018-05-10T17:49:09.649Z,17.05
2018-05-10T17:51:37.102Z,17.17
2018-05-10T17:54:04.529Z,17.00
2018-05-10T17:56:31.986Z,17.11
2018-05-10T17:58:59.413Z,17.07
2018-05-10T18:01:26.853Z,17.16
2018-05-10T18:03:54.271Z,16.95
2018-05-10T18:06:21.732Z,16.93
2018-05-10T18:08:49.186Z,16.37
2018-05-10T18:11:17.564Z,16.16
2018-05-10T18:13:45.066Z,16.05
2018-05-10T18:16:14.475Z,16.00
2018-05-10T18:18:45.181Z,15.85
2018-05-10T18:21:12.636Z,15.82
2018-05-10T18:23:40.999Z,16.14
2018-05-10T18:26:09.401Z,15.95
2018-05-10T18:28:36.854Z,15.95
2018-05-10T18:31:04.291Z,16.14
2018-05-10T18:33:31.746Z,15.88
2018-05-10T18:36:04.114Z,15.48
2018-05-10T18:38:32.456Z,15.51
2018-05-10T18:40:59.873Z,15.72
2018-05-10T18:43:27.317Z,15.56
2018-05-10T18:45:54.738Z,15.46
2018-05-10T18:48:22.198Z,15.15
2018-05-10T18:50:50.574Z,15.17
2018-05-10T18:53:18.026Z,15.10
2018-05-10T18:55:45.465Z,15.00
2018-05-10T18:58:12.917Z,14.84
2018-05-10T19:00:40.341Z,14.94
2018-05-10T19:03:09.709Z,14.80
2018-05-10T19:05:37.145Z,14.67
2018-05-10T19:08:07.711Z,14.74
2018-05-10T19:10:35.163Z,14.68
2018-05-10T19:13:02.574Z,14.77
2018-05-10T19:15:30.051Z,14.79
2018-05-10T19:17:57.447Z,14.97
2018-05-10T19:20:24.902Z,15.02
2018-05-10T19:22:52.307Z,15.11
2018-05-10T19:25:19.755Z,15.07
2018-05-10T19:27:47.177Z,15.06
2018-05-10T19:30:14.640Z,14.95
2018-05-10T19:32:42.071Z,14.76
2018-05-10T19:35:09.491Z,14.53
2018-05-10T19:37:36.943Z,14.54
2018-05-10T19:40:04.355Z,14.55
2018-05-10T19:42:31.791Z,14.30
2018-05-10T19:44:59.206Z,14.15
2018-05-10T19:47:26.666Z,14.10
2018-05-10T19:49:54.086Z,14.26
2018-05-10T19:52:22.458Z,14.27
2018-05-10T19:54:51.822Z,14.25
2018-05-10T19:57:19.265Z,14.33
2018-05-10T19:59:50.001Z,14.12
2018-05-10T20:02:17.465Z,14.23
2018-05-10T20:04:44.882Z,14.24
2018-05-10T20:07:12.334Z,14.17
2018-05-10T20:09:39.741Z,14.01
2018-05-10T20:12:07.193Z,13.73
2018-05-10T20:14:34.615Z,13.78
2018-05-10T20:17:02.049Z,13.71
2018-05-10T20:19:29.475Z,13.92
2018-05-10T20:21:56.898Z,13.81
2018-05-10T20:24:24.349Z,13.95
2018-05-10T20:26:51.778Z,13.84
2018-05-10T20:29:19.228Z,13.87
2018-05-10T20:31:46.667Z,13.86
2018-05-10T20:34:14.112Z,13.75
2018-05-10T20:36:42.439Z,13.68
2018-05-10T20:39:09.886Z,13.65
2018-05-10T20:41:37.401Z,13.64
2018-05-10T20:44:04.789Z,13.48
2018-05-10T20:46:32.214Z,13.41
2018-05-10T20:48:59.670Z,13.50
2018-05-10T20:51:27.105Z,13.45
2018-05-10T20:53:54.548Z,13.26
2018-05-10T20:56:21.954Z,13.37
2018-05-10T20:58:49.415Z,13.24
2018-05-10T21:01:16.846Z,13.20
2018-05-10T21:03:44.420Z,13.33
2018-05-10T21:06:11.698Z,13.24
2018-05-10T21:08:39.118Z,13.41
2018-05-10T21:11:06.570Z,13.63
2018-05-10T21:13:33.993Z,13.48
2018-05-10T21:16:03.364Z,13.38
2018-05-10T21:18:30.786Z,13.47
2018-05-10T21:20:58.246Z,13.40
2018-05-10T21:23:26.632Z,13.39
2018-05-10T21:25:54.404Z,13.49
2018-05-10T21:28:21.832Z,13.34
2018-05-10T21:30:49.274Z,13.40
2018-05-10T21:33:18.599Z,13.50
2018-05-10T21:35:46.044Z,13.42
2018-05-10T21:38:13.458Z,13.41
2018-05-10T21:40:40.916Z,13.31
2018-05-10T21:43:08.334Z,13.33
2018-05-10T21:45:36.691Z,13.40
2018-05-10T21:48:04.590Z,13.34
2018-05-10T21:50:32.056Z,13.16
2018-05-10T21:53:00.419Z,12.98
2018-05-10T21:55:29.835Z,13.10
2018-05-10T21:57:57.286Z,13.01
2018-05-10T22:00:25.651Z,13.11
2018-05-10T22:02:54.056Z,13.06
2018-05-10T22:05:21.473Z,13.09
2018-05-10T22:07:49.882Z,13.05
2018-05-10T22:10:18.214Z,13.11
2018-05-10T22:12:45.666Z,13.20
2018-05-10T22:15:13.082Z,13.47
2018-05-10T22:17:40.525Z,13.22
2018-05-10T22:20:07.946Z,13.04
2018-05-10T22:22:35.412Z,13.09
2018-05-10T22:25:02.832Z,13.13
2018-05-10T22:27:31.221Z,12.88
2018-05-10T22:29:58.673Z,12.82
2018-05-10T22:32:26.106Z,12.83
2018-05-10T22:34:53.523Z,13.00
2018-05-10T22:37:21.130Z,12.88
2018-05-10T22:39:48.561Z,13.01
2018-05-10T22:42:16.909Z,12.94
2018-05-10T22:44:44.358Z,12.97
2018-05-10T22:47:11.774Z,12.94
2018-05-10T22:49:39.237Z,13.02
2018-05-10T22:52:06.650Z,13.22
2018-05-10T22:54:34.092Z,13.02
2018-05-10T22:57:01.526Z,12.84
2018-05-10T22:59:29.716Z,12.92
2018-05-10T23:01:57.126Z,12.97
2018-05-10T23:04:24.566Z,12.98
2018-05-10T23:06:52.920Z,12.85
2018-05-10T23:09:20.372Z,12.98
2018-05-10T23:11:47.781Z,12.81
2018-05-10T23:14:15.269Z,12.67
2018-05-10T23:16:42.681Z,12.63
2018-05-10T23:19:10.138Z,12.86
2018-05-10T23:21:37.556Z,12.81
2018-05-10T23:24:05.769Z,12.68
2018-05-10T23:26:33.223Z,12.69
2018-05-10T23:29:00.641Z,12.63
2018-05-10T23:31:29.046Z,12.76
2018-05-10T23:33:56.478Z,12.74
2018-05-10T23:36:23.914Z,12.62
2018-05-10T23:38:51.330Z,12.76
2018-05-10T23:41:18.786Z,12.96
2018-05-10T23:43:46.206Z,12.70
2018-05-10T23:46:13.654Z,12.77
2018-05-10T23:48:41.062Z,12.68
2018-05-10T23:51:08.508Z,12.68
2018-05-10T23:53:35.947Z,12.70
2018-05-10T23:56:03.381Z,12.73
2018-05-10T23:58:30.804Z,12.79
